createdAt,value
2018-02-18T00:00:04.194Z,66.50
2018-02-18T00:02:33.084Z,66.42
2018-02-18T00:05:01.628Z,66.56
2018-02-18T00:07:30.270Z,67.52
2018-02-18T00:09:58.896Z,67.55
2018-02-18T00:12:27.468Z,67.30
2018-02-18T00:14:57.609Z,68.83
2018-02-18T00:17:26.208Z,67.80
2018-02-18T00:19:54.769Z,67.75
2018-02-18T00:22:23.325Z,69.25
2018-02-18T00:24:52.864Z,68.62
2018-02-18T00:27:21.420Z,68.12
2018-02-18T00:29:50.736Z,68.31
2018-02-18T00:32:19.352Z,69.18
2018-02-18T00:34:47.904Z,69.95
2018-02-18T00:37:17.216Z,69.45
2018-02-18T00:39:45.844Z,68.71
2018-02-18T00:42:14.425Z,67.82
2018-02-18T00:44:42.972Z,67.19
2018-02-18T00:47:11.604Z,67.23
2018-02-18T00:49:40.180Z,66.31
2018-02-18T00:52:08.744Z,67.17
2018-02-18T00:54:37.349Z,66.78
2018-02-18T00:57:05.947Z,67.72
2018-02-18T00:59:35.264Z,67.40
2018-02-18T01:02:04.093Z,67.45
2018-02-18T01:04:32.641Z,69.39
2018-02-18T01:07:01.188Z,68.15
2018-02-18T01:09:29.929Z,68.62
2018-02-18T01:11:58.484Z,68.46
2018-02-18T01:14:27.796Z,69.10
2018-02-18T01:16:57.156Z,68.33
2018-02-18T01:19:25.740Z,68.30
2018-02-18T01:21:54.305Z,68.82
2018-02-18T01:24:23.095Z,68.19
2018-02-18T01:26:51.644Z,68.41
2018-02-18T01:29:20.192Z,68.63
2018-02-18T01:31:49.036Z,68.81
2018-02-18T01:34:17.588Z,68.09
2018-02-18T01:36:46.905Z,68.14
2018-02-18T01:39:15.648Z,67.96
2018-02-18T01:41:44.204Z,69.35
2018-02-18T01:44:12.752Z,69.88
2018-02-18T01:46:41.495Z,67.40
2018-02-18T01:49:10.058Z,67.55
2018-02-18T01:51:38.612Z,67.23
2018-02-18T01:54:07.517Z,67.33
2018-02-18T01:56:36.068Z,67.13
2018-02-18T01:59:05.383Z,67.49
2018-02-18T02:01:34.073Z,68.35
2018-02-18T02:04:02.625Z,69.41
2018-02-18T02:06:31.945Z,68.72
2018-02-18T02:09:00.540Z,68.11
2018-02-18T02:11:29.096Z,67.63
2018-02-18T02:13:58.412Z,67.35
2018-02-18T02:16:27.229Z,67.22
2018-02-18T02:18:55.784Z,67.29
2018-02-18T02:21:24.330Z,67.82
2018-02-18T02:23:53.089Z,67.06
2018-02-18T02:26:21.648Z,67.56
2018-02-18T02:28:50.205Z,67.50
2018-02-18T02:31:19.664Z,67.32
2018-02-18T02:33:48.220Z,67.06
2018-02-18T02:36:16.777Z,66.68
2018-02-18T02:38:45.435Z,66.38
2018-02-18T02:41:13.996Z,67.91
2018-02-18T02:43:42.541Z,69.59
2018-02-18T02:46:11.144Z,68.59
2018-02-18T02:48:39.710Z,69.55
2018-02-18T02:51:08.260Z,70.42
2018-02-18T02:53:38.521Z,70.64
2018-02-18T02:56:07.073Z,71.30
2018-02-18T02:58:36.393Z,71.88
2018-02-18T03:01:05.015Z,70.83
2018-02-18T03:03:33.564Z,70.43
2018-02-18T03:06:02.112Z,71.71
2018-02-18T03:08:30.969Z,72.11
2018-02-18T03:10:59.517Z,72.53
2018-02-18T03:13:28.068Z,72.64
2018-02-18T03:15:56.676Z,72.82
2018-02-18T03:18:25.229Z,72.97
2018-02-18T03:20:53.808Z,72.67
2018-02-18T03:23:22.525Z,72.05
2018-02-18T03:25:51.841Z,72.26
2018-02-18T03:28:20.397Z,72.42
2018-02-18T03:30:49.964Z,72.26
2018-02-18T03:33:18.516Z,72.32
2018-02-18T03:35:47.072Z,73.31
2018-02-18T03:38:16.635Z,73.12
2018-02-18T03:40:45.183Z,71.61
2018-02-18T03:43:13.732Z,71.88
2018-02-18T03:45:43.109Z,71.52
2018-02-18T03:48:11.658Z,71.38
2018-02-18T03:50:40.278Z,72.18
2018-02-18T03:53:09.048Z,72.06
2018-02-18T03:55:37.601Z,71.39
2018-02-18T03:58:06.916Z,70.06
2018-02-18T04:00:35.716Z,70.38
2018-02-18T04:03:04.264Z,72.09
2018-02-18T04:05:33.576Z,71.72
2018-02-18T04:08:02.164Z,71.34
2018-02-18T04:10:30.710Z,72.65
2018-02-18T04:12:59.261Z,72.95
2018-02-18T04:15:27.880Z,73.28
2018-02-18T04:17:57.932Z,72.72
2018-02-18T04:20:26.488Z,72.64
2018-02-18T04:22:55.857Z,72.89
2018-02-18T04:25:24.404Z,72.02
2018-02-18T04:27:52.953Z,72.30
2018-02-18T04:30:22.617Z,72.41
2018-02-18T04:32:51.931Z,72.32
2018-02-18T04:35:20.481Z,70.72
2018-02-18T04:37:49.168Z,70.61
2018-02-18T04:40:17.713Z,71.57
2018-02-18T04:42:47.025Z,71.88
2018-02-18T04:45:16.580Z,71.55
2018-02-18T04:47:45.128Z,70.54
2018-02-18T04:50:13.676Z,69.37
2018-02-18T04:52:42.280Z,68.33
2018-02-18T04:55:11.580Z,68.25
2018-02-18T04:57:40.905Z,69.05
2018-02-18T05:00:09.509Z,68.27
2018-02-18T05:02:38.056Z,69.04
2018-02-18T05:05:07.372Z,69.81
2018-02-18T05:07:35.973Z,68.79
2018-02-18T05:10:04.528Z,69.57
2018-02-18T05:12:33.072Z,70.79
2018-02-18T05:15:01.760Z,70.71
2018-02-18T05:17:30.316Z,70.18
2018-02-18T05:19:58.866Z,70.58
2018-02-18T05:22:27.560Z,69.99
2018-02-18T05:24:56.108Z,68.30
2018-02-18T05:27:25.432Z,68.94
2018-02-18T05:29:55.798Z,68.30
2018-02-18T05:32:25.123Z,68.41
2018-02-18T05:34:53.677Z,67.96
2018-02-18T05:37:22.268Z,68.02
2018-02-18T05:39:50.821Z,67.12
2018-02-18T05:42:19.367Z,65.85
2018-02-18T05:44:48.736Z,67.03
2018-02-18T05:47:17.292Z,67.37
2018-02-18T05:49:45.840Z,67.05
2018-02-18T05:52:15.212Z,66.79
2018-02-18T05:54:43.780Z,66.95
2018-02-18T05:57:12.332Z,68.75
2018-02-18T05:59:40.932Z,70.53
2018-02-18T06:02:09.489Z,70.23
2018-02-18T06:04:38.808Z,69.49
2018-02-18T06:07:07.416Z,68.32
2018-02-18T06:09:35.964Z,68.47
2018-02-18T06:12:04.517Z,67.92
2018-02-18T06:14:34.085Z,67.60
2018-02-18T06:17:02.636Z,66.65
2018-02-18T06:19:31.184Z,66.19
2018-02-18T06:21:59.789Z,67.40
2018-02-18T06:24:28.340Z,66.49
2018-02-18T06:26:56.894Z,67.55
2018-02-18T06:29:25.893Z,67.67
2018-02-18T06:31:54.445Z,66.34
2018-02-18T06:34:22.999Z,66.89
2018-02-18T06:36:52.381Z,67.39
2018-02-18T06:39:20.936Z,67.07
2018-02-18T06:41:49.533Z,67.41
2018-02-18T06:44:18.417Z,66.57
2018-02-18T06:46:46.964Z,65.96
2018-02-18T06:49:15.512Z,65.70
2018-02-18T06:51:44.473Z,66.69
2018-02-18T06:54:13.017Z,66.94
2018-02-18T06:56:41.573Z,65.98
2018-02-18T06:59:10.265Z,65.34
2018-02-18T07:01:39.588Z,64.01
2018-02-18T07:04:08.136Z,65.10
2018-02-18T07:06:36.829Z,65.11
2018-02-18T07:09:05.441Z,64.98
2018-02-18T07:11:33.993Z,63.61
2018-02-18T07:14:02.597Z,64.65
2018-02-18T07:16:31.916Z,63.41
2018-02-18T07:19:00.465Z,64.58
2018-02-18T07:21:30.672Z,62.14
2018-02-18T07:23:59.237Z,62.31
2018-02-18T07:26:27.788Z,60.41
2018-02-18T07:28:56.610Z,61.89
2018-02-18T07:31:25.168Z,60.56
2018-02-18T07:33:53.725Z,59.19
2018-02-18T07:36:23.275Z,58.52
2018-02-18T07:38:51.824Z,58.52
2018-02-18T07:41:20.376Z,57.87
2018-02-18T07:43:49.236Z,58.29
2018-02-18T07:46:17.792Z,54.92
2018-02-18T07:48:46.344Z,56.24
2018-02-18T07:51:15.711Z,55.19
2018-02-18T07:53:44.262Z,58.76
2018-02-18T07:56:12.816Z,57.61
2018-02-18T07:58:42.189Z,58.46
2018-02-18T08:01:10.748Z,54.35
2018-02-18T08:03:40.001Z,53.15
2018-02-18T08:06:09.388Z,53.78
2018-02-18T08:08:38.708Z,54.50
2018-02-18T08:11:08.029Z,53.16
2018-02-18T08:13:36.664Z,50.50
2018-02-18T08:16:05.240Z,53.20
2018-02-18T08:18:33.811Z,53.26
2018-02-18T08:21:02.449Z,49.98
2018-02-18T08:23:31.001Z,49.65
2018-02-18T08:25:59.558Z,51.38
2018-02-18T08:28:29.063Z,52.01
2018-02-18T08:30:57.614Z,51.71
2018-02-18T08:33:26.164Z,53.86
2018-02-18T08:35:55.828Z,52.14
2018-02-18T08:38:24.377Z,52.91
2018-02-18T08:40:53.709Z,53.30
2018-02-18T08:43:22.461Z,51.51
2018-02-18T08:45:51.016Z,54.29
2018-02-18T08:48:19.570Z,54.35
2018-02-18T08:50:48.169Z,53.60
2018-02-18T08:53:16.717Z,52.03
2018-02-18T08:55:45.258Z,51.59
2018-02-18T08:58:14.825Z,52.32
2018-02-18T09:00:43.381Z,50.39
2018-02-18T09:03:11.974Z,50.16
2018-02-18T09:05:40.725Z,53.11
2018-02-18T09:08:10.049Z,51.79
2018-02-18T09:10:38.604Z,48.71
2018-02-18T09:13:08.375Z,51.21
2018-02-18T09:15:36.930Z,49.83
2018-02-18T09:18:05.493Z,49.29
2018-02-18T09:20:35.028Z,48.31
2018-02-18T09:23:03.585Z,51.76
2018-02-18T09:25:32.137Z,51.34
2018-02-18T09:28:00.754Z,53.10
2018-02-18T09:30:29.316Z,51.99
2018-02-18T09:32:58.636Z,52.98
2018-02-18T09:35:27.240Z,51.83
2018-02-18T09:37:55.804Z,51.35
2018-02-18T09:40:24.365Z,52.95
2018-02-18T09:42:53.848Z,51.31
2018-02-18T09:45:23.173Z,52.09
2018-02-18T09:47:52.500Z,53.65
2018-02-18T09:50:22.077Z,53.83
2018-02-18T09:52:50.632Z,53.07
2018-02-18T09:55:19.185Z,51.03
2018-02-18T09:57:47.881Z,48.45
2018-02-18T10:02:50.190Z,48.96
2018-02-18T10:05:18.766Z,50.20
2018-02-18T10:07:47.330Z,50.51
2018-02-18T10:10:16.041Z,50.77
2018-02-18T10:12:44.603Z,50.66
2018-02-18T10:15:13.169Z,51.11
2018-02-18T10:17:41.989Z,49.47
2018-02-18T10:20:10.549Z,49.13
2018-02-18T10:22:39.109Z,51.43
2018-02-18T10:25:08.509Z,51.52
2018-02-18T10:27:37.064Z,50.60
2018-02-18T10:30:05.629Z,47.16
2018-02-18T10:32:34.281Z,45.98
2018-02-18T10:35:02.841Z,45.32
2018-02-18T10:37:32.173Z,48.20
2018-02-18T10:40:00.801Z,48.93
2018-02-18T10:42:29.383Z,48.52
2018-02-18T10:44:57.948Z,49.55
2018-02-18T10:47:26.556Z,46.71
2018-02-18T10:49:55.121Z,48.20
2018-02-18T10:52:23.681Z,46.81
2018-02-18T10:54:52.389Z,48.02
2018-02-18T10:57:20.954Z,47.62
2018-02-18T10:59:49.513Z,47.56
2018-02-18T11:02:18.137Z,49.12
2018-02-18T11:04:46.700Z,49.74
2018-02-18T11:07:15.264Z,48.23
2018-02-18T11:09:44.153Z,46.87
2018-02-18T11:12:12.721Z,45.38
2018-02-18T11:14:41.332Z,45.43
2018-02-18T11:17:09.950Z,46.02
2018-02-18T11:19:39.277Z,47.12
2018-02-18T11:22:07.840Z,46.53
2018-02-18T11:24:37.210Z,47.03
2018-02-18T11:27:05.774Z,45.80
2018-02-18T11:29:34.345Z,49.58
2018-02-18T11:32:02.950Z,46.74
2018-02-18T11:34:31.519Z,47.39
2018-02-18T11:37:00.076Z,48.06
2018-02-18T11:39:29.007Z,47.94
2018-02-18T11:41:57.672Z,48.03
2018-02-18T11:44:26.249Z,47.93
2018-02-18T11:46:55.207Z,44.98
2018-02-18T11:49:23.780Z,46.31
2018-02-18T11:51:53.142Z,46.51
2018-02-18T11:54:21.938Z,45.98
2018-02-18T11:56:50.526Z,46.45
2018-02-18T11:59:19.097Z,45.32
2018-02-18T12:01:47.800Z,45.45
2018-02-18T12:04:16.348Z,44.26
2018-02-18T12:06:44.897Z,44.63
2018-02-18T12:09:14.373Z,46.52
2018-02-18T12:11:42.957Z,46.49
2018-02-18T12:14:11.520Z,45.54
2018-02-18T12:16:40.304Z,44.80
2018-02-18T12:19:08.857Z,45.94
2018-02-18T12:21:37.441Z,46.06
2018-02-18T12:24:06.141Z,46.60
2018-02-18T12:26:34.704Z,43.92
2018-02-18T12:29:03.269Z,44.42
2018-02-18T12:31:32.653Z,47.70
2018-02-18T12:34:01.217Z,46.88
2018-02-18T12:36:30.533Z,48.40
2018-02-18T12:38:59.138Z,45.87
2018-02-18T12:41:35.052Z,45.21
2018-02-18T12:44:03.836Z,44.26
2018-02-18T12:46:32.392Z,46.06
2018-02-18T12:49:00.948Z,44.57
2018-02-18T12:51:30.518Z,43.46
2018-02-18T12:53:59.120Z,45.51
2018-02-18T12:56:27.693Z,46.51
2018-02-18T12:58:56.385Z,44.14
2018-02-18T13:01:24.962Z,44.17
2018-02-18T13:03:53.535Z,45.96
2018-02-18T13:06:22.148Z,46.13
2018-02-18T13:08:50.708Z,48.18
2018-02-18T13:11:19.272Z,47.15
2018-02-18T13:13:47.889Z,47.22
2018-02-18T13:16:16.466Z,47.35
2018-02-18T13:18:45.032Z,47.15
2018-02-18T13:21:13.826Z,49.87
2018-02-18T13:23:42.377Z,49.61
2018-02-18T13:26:10.929Z,48.87
2018-02-18T13:28:40.697Z,48.65
2018-02-18T13:31:09.252Z,49.14
2018-02-18T13:33:37.812Z,48.77
2018-02-18T13:36:07.272Z,46.84
2018-02-18T13:38:35.828Z,47.78
2018-02-18T13:41:04.396Z,46.82
2018-02-18T13:43:33.014Z,47.44
2018-02-18T13:46:01.568Z,50.07
2018-02-18T13:48:30.440Z,48.44
2018-02-18T13:50:59.962Z,47.91
2018-02-18T13:53:28.521Z,48.01
2018-02-18T13:55:57.964Z,47.78
2018-02-18T13:58:26.977Z,46.82
2018-02-18T14:00:55.525Z,47.40
2018-02-18T14:03:24.082Z,47.79
2018-02-18T14:05:53.461Z,47.31
2018-02-18T14:08:22.030Z,47.96
2018-02-18T14:10:50.585Z,46.84
2018-02-18T14:13:19.469Z,47.52
2018-02-18T14:15:48.030Z,46.72
2018-02-18T14:18:17.417Z,47.13
2018-02-18T14:20:46.280Z,47.74
2018-02-18T14:23:14.832Z,47.08
2018-02-18T14:25:43.390Z,46.62
2018-02-18T14:28:12.757Z,48.38
2018-02-18T14:30:41.319Z,48.26
2018-02-18T14:33:09.881Z,49.28
2018-02-18T14:35:39.560Z,48.57
2018-02-18T14:38:08.876Z,50.00
2018-02-18T14:40:38.385Z,49.95
2018-02-18T14:43:24.550Z,51.19
2018-02-18T14:46:10.857Z,50.95
2018-02-18T14:48:57.865Z,51.03
2018-02-18T14:51:44.135Z,51.46
2018-02-18T14:54:30.269Z,53.22
2018-02-18T14:57:17.319Z,52.02
2018-02-18T14:59:45.885Z,52.49
2018-02-18T15:02:14.445Z,53.07
2018-02-18T15:04:43.049Z,53.90
2018-02-18T15:07:11.634Z,53.85
2018-02-18T15:09:40.961Z,53.76
2018-02-18T15:12:09.662Z,53.31
2018-02-18T15:14:38.221Z,53.75
2018-02-18T15:17:06.774Z,53.63
2018-02-18T15:19:36.141Z,54.06
2018-02-18T15:22:04.721Z,53.67
2018-02-18T15:24:33.277Z,54.10
2018-02-18T15:27:02.189Z,54.12
2018-02-18T15:29:30.746Z,54.48
2018-02-18T15:31:59.305Z,54.00
2018-02-18T15:34:28.988Z,53.71
2018-02-18T15:36:57.549Z,54.33
2018-02-18T15:39:26.144Z,54.33
2018-02-18T15:41:54.748Z,54.33
2018-02-18T15:44:23.304Z,54.05
2018-02-18T15:46:51.866Z,54.29
2018-02-18T15:49:20.613Z,54.16
2018-02-18T15:51:49.934Z,53.95
2018-02-18T15:54:18.485Z,53.91
2018-02-18T15:56:48.057Z,54.30
2018-02-18T15:59:16.617Z,55.13
2018-02-18T16:01:45.176Z,55.15
2018-02-18T16:04:13.776Z,55.62
2018-02-18T16:06:42.337Z,56.68
2018-02-18T16:09:10.905Z,56.97
2018-02-18T16:11:39.524Z,57.70
2018-02-18T16:14:08.076Z,57.77
2018-02-18T16:16:36.688Z,57.91
2018-02-18T16:19:05.293Z,57.54
2018-02-18T16:21:33.854Z,57.93
2018-02-18T16:24:02.413Z,58.15
2018-02-18T16:26:31.220Z,58.27
2018-02-18T16:28:59.785Z,57.98
2018-02-18T16:31:28.349Z,57.65
2018-02-18T16:33:56.961Z,58.07
2018-02-18T16:36:25.521Z,58.37
2018-02-18T16:38:54.850Z,58.81
2018-02-18T16:41:23.457Z,59.16
2018-02-18T16:43:52.032Z,59.82
2018-02-18T16:46:20.601Z,59.42
2018-02-18T16:48:49.313Z,59.49
2018-02-18T16:51:17.885Z,60.02
2018-02-18T16:53:47.209Z,60.30
2018-02-18T16:56:15.820Z,60.70
2018-02-18T16:58:45.146Z,60.77
2018-02-18T17:01:13.709Z,60.67
2018-02-18T17:03:42.313Z,61.48
2018-02-18T17:06:10.874Z,61.76
2018-02-18T17:08:39.437Z,62.44
2018-02-18T17:11:08.820Z,61.79
2018-02-18T17:13:37.392Z,61.37
2018-02-18T17:16:06.721Z,62.24
2018-02-18T17:18:36.207Z,62.45
2018-02-18T17:21:05.592Z,61.43
2018-02-18T17:23:34.156Z,62.08
2018-02-18T17:26:02.972Z,62.69
2018-02-18T17:28:31.538Z,63.56
2018-02-18T17:31:00.097Z,63.05
2018-02-18T17:33:28.800Z,62.68
2018-02-18T17:35:57.368Z,62.26
2018-02-18T17:38:25.928Z,61.94
2018-02-18T17:40:55.310Z,61.83
2018-02-18T17:43:23.876Z,63.21
2018-02-18T17:45:52.469Z,62.88
2018-02-18T17:48:21.345Z,62.11
2018-02-18T17:50:49.909Z,61.67
2018-02-18T17:53:18.497Z,61.51
2018-02-18T17:55:47.109Z,61.72
2018-02-18T17:58:15.680Z,62.95
2018-02-18T18:00:44.237Z,63.14
2018-02-18T18:03:13.717Z,62.27
2018-02-18T18:05:42.282Z,61.41
2018-02-18T18:08:11.612Z,61.43
2018-02-18T18:10:40.225Z,61.65
2018-02-18T18:13:08.785Z,61.13
2018-02-18T18:15:37.346Z,61.14
2018-02-18T18:18:06.907Z,60.90
2018-02-18T18:20:35.471Z,61.12
2018-02-18T18:23:04.037Z,61.79
2018-02-18T18:25:32.859Z,61.94
2018-02-18T18:28:01.426Z,63.30
2018-02-18T18:30:29.986Z,64.08
2018-02-18T18:32:58.663Z,63.38
2018-02-18T18:35:27.993Z,62.85
2018-02-18T18:37:56.557Z,62.45
2018-02-18T18:40:25.182Z,62.97
2018-02-18T18:42:53.745Z,62.76
2018-02-18T18:45:22.315Z,62.99
2018-02-18T18:47:51.137Z,62.52
2018-02-18T18:50:19.700Z,62.41
2018-02-18T18:52:48.257Z,62.39
2018-02-18T18:55:17.630Z,62.64
2018-02-18T18:57:46.196Z,61.94
2018-02-18T19:00:14.763Z,61.86
2018-02-18T19:02:43.369Z,63.05
2018-02-18T19:05:11.937Z,66.16
2018-02-18T19:07:40.501Z,66.01
2018-02-18T19:10:09.109Z,64.77
2018-02-18T19:12:37.677Z,66.52
2018-02-18T19:15:06.240Z,66.56
2018-02-18T19:17:34.851Z,67.25
2018-02-18T19:20:03.405Z,67.76
2018-02-18T19:22:31.961Z,68.41
2018-02-18T19:25:01.473Z,67.23
2018-02-18T19:27:30.809Z,66.76
2018-02-18T19:29:59.366Z,66.71
2018-02-18T19:32:28.918Z,66.32
2018-02-18T19:34:57.513Z,65.91
2018-02-18T19:37:26.087Z,65.29
2018-02-18T19:39:54.822Z,64.90
2018-02-18T19:42:24.201Z,66.65
2018-02-18T19:44:53.544Z,66.65
2018-02-18T19:47:22.169Z,65.37
2018-02-18T19:49:50.763Z,64.60
2018-02-18T19:52:19.335Z,64.09
2018-02-18T19:54:47.941Z,64.63
2018-02-18T19:57:17.277Z,64.50
2018-02-18T19:59:45.840Z,65.30
2018-02-18T20:02:15.228Z,65.20
2018-02-18T20:04:43.790Z,64.77
2018-02-18T20:07:12.361Z,65.72
2018-02-18T20:09:41.117Z,64.84
2018-02-18T20:12:09.681Z,64.70
2018-02-18T20:14:38.245Z,64.65
2018-02-18T20:17:07.173Z,65.38
2018-02-18T20:19:35.755Z,64.31
2018-02-18T20:22:04.318Z,63.31
2018-02-18T20:24:32.926Z,63.87
2018-02-18T20:27:01.505Z,63.25
2018-02-18T20:29:30.105Z,63.92
2018-02-18T20:31:58.809Z,64.93
2018-02-18T20:34:28.489Z,65.55
2018-02-18T20:36:57.052Z,65.04
2018-02-18T20:39:25.676Z,64.91
2018-02-18T20:41:54.284Z,65.13
2018-02-18T20:44:23.634Z,64.35
2018-02-18T20:46:52.627Z,64.65
2018-02-18T20:49:21.188Z,64.23
2018-02-18T20:51:49.748Z,64.62
2018-02-18T20:54:18.356Z,64.94
2018-02-18T20:56:46.917Z,65.95
2018-02-18T20:59:15.476Z,67.31
2018-02-18T21:01:44.950Z,68.35
2018-02-18T21:04:13.505Z,67.92
2018-02-18T21:06:42.065Z,66.06
2018-02-18T21:09:11.445Z,66.75
2018-02-18T21:11:40.002Z,67.51
2018-02-18T21:14:08.568Z,66.58
2018-02-18T21:16:37.177Z,66.11
2018-02-18T21:19:05.726Z,67.33
2018-02-18T21:21:34.297Z,66.86
2018-02-18T21:24:03.118Z,66.03
2018-02-18T21:26:31.685Z,66.34
2018-02-18T21:29:00.245Z,66.02
2018-02-18T21:31:28.846Z,64.99
2018-02-18T21:33:57.408Z,65.15
2018-02-18T21:36:25.968Z,65.72
2018-02-18T21:38:54.574Z,65.03
2018-02-18T21:41:23.128Z,65.15
2018-02-18T21:43:51.681Z,64.89
2018-02-18T21:46:20.285Z,64.58
2018-02-18T21:48:48.858Z,64.87
2018-02-18T21:51:17.427Z,65.10
2018-02-18T21:53:46.025Z,65.50
2018-02-18T21:56:14.580Z,66.41
2018-02-18T21:58:43.145Z,65.27
2018-02-18T22:01:11.759Z,65.38
2018-02-18T22:03:40.312Z,65.75
2018-02-18T22:06:08.860Z,66.84
2018-02-18T22:08:38.522Z,68.00
2018-02-18T22:11:07.084Z,67.20
2018-02-18T22:13:35.636Z,66.78
2018-02-18T22:16:04.241Z,66.51
2018-02-18T22:18:33.557Z,67.68
2018-02-18T22:21:02.125Z,67.13
2018-02-18T22:23:31.489Z,67.59
2018-02-18T22:26:00.040Z,67.64
2018-02-18T22:28:28.592Z,67.91
2018-02-18T22:30:59.067Z,67.31
2018-02-18T22:33:27.620Z,68.09
2018-02-18T22:35:56.172Z,68.36
2018-02-18T22:38:25.549Z,68.28
2018-02-18T22:40:54.112Z,67.71
2018-02-18T22:43:22.665Z,67.49
2018-02-18T22:45:51.286Z,68.00
2018-02-18T22:48:19.837Z,67.74
2018-02-18T22:50:48.399Z,67.12
2018-02-18T22:53:18.151Z,67.69
2018-02-18T22:55:46.712Z,67.88
2018-02-18T22:58:15.264Z,67.57
2018-02-18T23:00:45.464Z,68.08
2018-02-18T23:03:14.020Z,69.00
2018-02-18T23:05:48.173Z,68.28
2018-02-18T23:08:16.733Z,68.16
2018-02-18T23:10:45.286Z,67.98
2018-02-18T23:13:13.891Z,67.65
2018-02-18T23:15:42.444Z,68.00
2018-02-18T23:18:11.060Z,67.66
2018-02-18T23:20:57.332Z,67.80
2018-02-18T23:23:25.893Z,67.86
2018-02-18T23:25:55.248Z,68.04
2018-02-18T23:28:24.021Z,68.20
2018-02-18T23:30:52.582Z,67.82
2018-02-18T23:33:21.132Z,67.90
2018-02-18T23:35:50.606Z,67.57
2018-02-18T23:38:19.157Z,68.41
2018-02-18T23:40:47.709Z,69.99
2018-02-18T23:43:17.172Z,69.53
2018-02-18T23:45:45.724Z,69.57
2018-02-18T23:48:14.276Z,70.10
2018-02-18T23:50:42.885Z,69.13
2018-02-18T23:53:11.433Z,69.46
2018-02-18T23:55:39.988Z,69.45
2018-02-18T23:58:08.604Z,69.81
